createdAt,value
2022-08-22T00:03:16.000Z,111.32
2022-08-22T00:07:35.000Z,111.32
2022-08-22T00:12:35.000Z,104.24
2022-08-22T00:17:34.000Z,110.95
2022-08-22T00:22:35.000Z,107.96
2022-08-22T00:27:35.000Z,105.53
2022-08-22T00:32:35.000Z,97.81
2022-08-22T00:37:35.000Z,99.66
2022-08-22T00:42:42.000Z,101.95
2022-08-22T00:47:35.000Z,99.33
2022-08-22T00:52:34.000Z,101.98
2022-08-22T00:57:34.000Z,93.67
2022-08-22T01:02:34.000Z,95.56
2022-08-22T01:07:47.000Z,93.78
2022-08-22T01:12:35.000Z,94.13
2022-08-22T01:17:34.000Z,95.85
2022-08-22T01:22:34.000Z,95.85
2022-08-22T01:27:36.000Z,93.96
2022-08-22T01:32:34.000Z,94.73
2022-08-22T01:37:34.000Z,91.22
2022-08-22T01:42:34.000Z,91.33
2022-08-22T01:47:35.000Z,92.07
2022-08-22T01:52:35.000Z,91.47
2022-08-22T01:57:34.000Z,89.43
2022-08-22T02:02:35.000Z,91.67
2022-08-22T02:07:42.000Z,95.25
2022-08-22T02:12:34.000Z,93.89
2022-08-22T02:17:35.000Z,99.85
2022-08-22T02:22:35.000Z,98.09
2022-08-22T02:32:35.000Z,105.01
2022-08-22T02:37:35.000Z,99.71
2022-08-22T02:42:35.000Z,99.82
2022-08-22T02:47:34.000Z,99.83
2022-08-22T02:52:35.000Z,100.96
2022-08-22T02:57:36.000Z,101.94
2022-08-22T03:02:34.000Z,102.26
2022-08-22T03:07:34.000Z,104.47
2022-08-22T03:12:35.000Z,110.87
2022-08-22T03:17:35.000Z,112.76
2022-08-22T03:22:35.000Z,112.76
2022-08-22T03:27:43.000Z,117.52
2022-08-22T03:32:34.000Z,124.3
2022-08-22T03:37:35.000Z,129.33
2022-08-22T03:42:35.000Z,135.17
2022-08-22T03:47:38.000Z,138.07
2022-08-22T03:52:35.000Z,140.94
2022-08-22T03:57:34.000Z,147.88
2022-08-22T04:02:54.000Z,149.56
2022-08-22T04:07:41.000Z,155.05
2022-08-22T04:12:34.000Z,162.99
2022-08-22T04:17:34.000Z,163.78
2022-08-22T04:22:35.000Z,167.63
2022-08-22T04:27:35.000Z,173.18
2022-08-22T04:32:34.000Z,179.03
2022-08-22T04:37:35.000Z,179.03
2022-08-22T04:42:43.000Z,187.24
2022-08-22T04:47:34.000Z,197.52
2022-08-22T04:52:39.000Z,206.81
2022-08-22T04:57:34.000Z,212.61
2022-08-22T05:02:35.000Z,212.51
2022-08-22T05:07:35.000Z,214.85
2022-08-22T05:12:39.000Z,217.47
2022-08-22T05:17:35.000Z,217.33
2022-08-22T05:22:35.000Z,215.45
2022-08-22T05:27:35.000Z,219.72
2022-08-22T05:32:35.000Z,220.76
2022-08-22T05:37:35.000Z,216.37
2022-08-22T05:42:35.000Z,216.71
2022-08-22T05:47:34.000Z,214.27
2022-08-22T05:52:38.000Z,214.43
2022-08-22T05:57:35.000Z,214.43
2022-08-22T06:02:35.000Z,199.08
2022-08-22T06:07:35.000Z,198.91
2022-08-22T06:12:35.000Z,188.36
2022-08-22T06:17:35.000Z,178.83
2022-08-22T06:22:35.000Z,176.24
2022-08-22T06:27:34.000Z,171.31
2022-08-22T06:33:09.000Z,168.98
2022-08-22T06:37:35.000Z,165.25
2022-08-22T06:42:34.000Z,159.86
2022-08-22T06:47:34.000Z,151.46
2022-08-22T06:52:34.000Z,149.18
2022-08-22T06:57:34.000Z,151.39
2022-08-22T07:02:35.000Z,150.26
2022-08-22T07:07:35.000Z,150.26
2022-08-22T07:12:34.000Z,150.69
2022-08-22T07:17:35.000Z,153.32
2022-08-22T07:22:34.000Z,156.07
2022-08-22T07:27:34.000Z,155.29
2022-08-22T07:32:35.000Z,150.01
2022-08-22T07:37:34.000Z,151.61
2022-08-22T07:42:40.000Z,147.43
2022-08-22T07:47:36.000Z,151.22
2022-08-22T07:52:34.000Z,148.53
2022-08-22T07:57:35.000Z,146.95
2022-08-22T08:02:35.000Z,147.13
2022-08-22T08:07:35.000Z,145.79
2022-08-22T08:12:35.000Z,144.78
2022-08-22T08:17:40.000Z,135.73
2022-08-22T08:22:35.000Z,135.73
2022-08-22T08:27:35.000Z,130.58
2022-08-22T08:32:34.000Z,135.64
2022-08-22T08:37:34.000Z,138.93
2022-08-22T08:42:35.000Z,134.95
2022-08-22T08:47:34.000Z,131.79
2022-08-22T08:52:35.000Z,127.5
2022-08-22T08:57:35.000Z,123.66
2022-08-22T09:02:35.000Z,108.12
2022-08-22T09:07:35.000Z,99.17
2022-08-22T09:12:35.000Z,91.55
2022-08-22T09:17:35.000Z,107.88
2022-08-22T09:22:35.000Z,103.45
2022-08-22T09:27:35.000Z,81.95
2022-08-22T09:32:35.000Z,66.53
2022-08-22T09:37:35.000Z,66.53
2022-08-22T09:42:35.000Z,60.37
2022-08-22T09:47:35.000Z,58.35
2022-08-22T09:52:45.000Z,61.75
2022-08-22T09:57:35.000Z,60.63
2022-08-22T10:02:35.000Z,52.28
2022-08-22T10:07:34.000Z,51.59
2022-08-22T10:12:35.000Z,52.21
2022-08-22T10:17:34.000Z,52.7
2022-08-22T10:22:41.000Z,52.36
2022-08-22T10:27:39.000Z,53
2022-08-22T10:32:37.000Z,52.77
2022-08-22T10:37:35.000Z,57.05
2022-08-22T10:42:38.000Z,57.9
2022-08-22T10:47:35.000Z,52.4
2022-08-22T10:52:34.000Z,52.4
2022-08-22T10:57:34.000Z,51.82
2022-08-22T11:02:35.000Z,50.2
2022-08-22T11:07:34.000Z,44.47
2022-08-22T11:12:45.000Z,48.25
2022-08-22T11:17:42.000Z,51.45
2022-08-22T11:22:36.000Z,49.94
2022-08-22T11:32:35.000Z,48.82
2022-08-22T11:37:53.000Z,42.02
2022-08-22T11:42:39.000Z,39.51
2022-08-22T11:47:39.000Z,40.62
2022-08-22T11:52:35.000Z,36.14
2022-08-22T11:57:35.000Z,25.33
2022-08-22T12:02:35.000Z,28
2022-08-22T12:07:35.000Z,28
2022-08-22T12:12:35.000Z,29.1
2022-08-22T12:18:06.000Z,29.06
2022-08-22T12:22:39.000Z,23.99
2022-08-22T12:27:39.000Z,21.2
2022-08-22T12:32:38.000Z,22.25
2022-08-22T12:37:34.000Z,19.06
2022-08-22T12:42:35.000Z,16.51
2022-08-22T12:47:35.000Z,14.56
2022-08-22T12:57:35.000Z,9.16
2022-08-22T13:02:35.000Z,7.66
2022-08-22T13:07:34.000Z,7.89
2022-08-22T13:12:36.000Z,8.63
2022-08-22T13:17:35.000Z,6.82
2022-08-22T13:22:35.000Z,6.63
2022-08-22T13:27:37.000Z,6.71
2022-08-22T13:32:37.000Z,7.1
2022-08-22T13:37:35.000Z,6.94
2022-08-22T13:42:41.000Z,7.19
2022-08-22T13:47:35.000Z,7.16
2022-08-22T13:52:40.000Z,7.16
2022-08-22T13:57:35.000Z,7.17
2022-08-22T14:02:41.000Z,7.85
2022-08-22T14:07:35.000Z,7.06
2022-08-22T14:12:35.000Z,6.66
2022-08-22T14:17:35.000Z,6.83
2022-08-22T14:22:42.000Z,7.54
2022-08-22T14:27:36.000Z,7.78
2022-08-22T14:32:38.000Z,7.26
2022-08-22T14:37:37.000Z,7.23
2022-08-22T14:42:36.000Z,8.2
2022-08-22T14:48:05.000Z,7.56
2022-08-22T14:52:39.000Z,7.08
2022-08-22T14:57:35.000Z,7.07
2022-08-22T15:02:34.000Z,7.3
2022-08-22T15:07:35.000Z,7.3
2022-08-22T15:12:34.000Z,8.95
2022-08-22T15:17:35.000Z,11.15
2022-08-22T15:22:37.000Z,11.94
2022-08-22T15:27:37.000Z,12.15
2022-08-22T15:32:36.000Z,12
2022-08-22T15:37:35.000Z,12.21
2022-08-22T15:42:35.000Z,13.17
2022-08-22T15:47:40.000Z,12.75
2022-08-22T15:52:36.000Z,12.52
2022-08-22T15:57:35.000Z,12.84
2022-08-22T16:02:37.000Z,13.68
2022-08-22T16:07:35.000Z,14.42
2022-08-22T16:12:35.000Z,16.19
2022-08-22T16:17:34.000Z,16.19
2022-08-22T16:22:35.000Z,16.55
2022-08-22T16:27:35.000Z,17.98
2022-08-22T16:32:34.000Z,19.12
2022-08-22T16:37:35.000Z,19.7
2022-08-22T16:42:35.000Z,20.41
2022-08-22T16:47:34.000Z,20.64
2022-08-22T16:52:34.000Z,21.36
2022-08-22T16:57:35.000Z,21.37
2022-08-22T17:02:35.000Z,21.48
2022-08-22T17:07:35.000Z,20.44
2022-08-22T17:12:35.000Z,22.45
2022-08-22T17:17:35.000Z,23.97
2022-08-22T17:22:39.000Z,25.37
2022-08-22T17:27:35.000Z,22.92
2022-08-22T17:32:35.000Z,22.92
2022-08-22T17:37:35.000Z,22.91
2022-08-22T17:47:35.000Z,24.02
2022-08-22T17:52:34.000Z,27.54
2022-08-22T17:57:35.000Z,28.18
2022-08-22T18:02:35.000Z,29.5
2022-08-22T18:07:34.000Z,31.52
2022-08-22T18:12:35.000Z,34.17
2022-08-22T18:17:35.000Z,36.16
2022-08-22T18:22:34.000Z,39.7
2022-08-22T18:27:45.000Z,41.47
2022-08-22T18:32:36.000Z,45.81
2022-08-22T18:37:35.000Z,44.85
2022-08-22T18:42:35.000Z,44.85
2022-08-22T18:47:34.000Z,45.63
2022-08-22T18:52:34.000Z,46.43
2022-08-22T18:57:35.000Z,46.59
2022-08-22T19:02:35.000Z,47.66
2022-08-22T19:07:35.000Z,49.69
2022-08-22T19:12:35.000Z,52.76
2022-08-22T19:17:35.000Z,53.76
2022-08-22T19:27:34.000Z,59.71
2022-08-22T19:32:35.000Z,59.01
2022-08-22T19:37:43.000Z,65.47
2022-08-22T19:42:34.000Z,67.68
2022-08-22T19:47:35.000Z,69.31
2022-08-22T19:52:35.000Z,72.64
2022-08-22T19:57:35.000Z,73.96
2022-08-22T20:02:35.000Z,70.42
2022-08-22T20:07:34.000Z,68.38
2022-08-22T20:12:35.000Z,67.47
2022-08-22T20:17:35.000Z,67.47
2022-08-22T20:22:35.000Z,69.24
2022-08-22T20:27:35.000Z,66.38
2022-08-22T20:32:35.000Z,64.1
2022-08-22T20:37:55.000Z,63.2
2022-08-22T20:42:35.000Z,66.36
2022-08-22T20:47:35.000Z,69.32
2022-08-22T20:57:35.000Z,71.2
2022-08-22T21:02:34.000Z,72.2
2022-08-22T21:07:35.000Z,71.96
2022-08-22T21:12:34.000Z,70.83
2022-08-22T21:17:36.000Z,70.27
2022-08-22T21:22:37.000Z,71.38
2022-08-22T21:27:35.000Z,70.69
2022-08-22T21:32:34.000Z,71.08
2022-08-22T21:37:35.000Z,69.98
2022-08-22T21:42:35.000Z,68.42
2022-08-22T21:47:41.000Z,70.32
2022-08-22T21:52:35.000Z,69
2022-08-22T21:57:34.000Z,68.01
2022-08-22T22:02:37.000Z,68.01
2022-08-22T22:07:35.000Z,70.4
2022-08-22T22:12:34.000Z,68.44
2022-08-22T22:17:35.000Z,67.83
2022-08-22T22:22:35.000Z,65.12
2022-08-22T22:27:34.000Z,66.88
2022-08-22T22:32:34.000Z,66.24
2022-08-22T22:37:35.000Z,64.64
2022-08-22T22:42:35.000Z,63.58
2022-08-22T22:47:35.000Z,63.19
2022-08-22T22:52:35.000Z,62.17
2022-08-22T22:57:35.000Z,58.68
2022-08-22T23:02:35.000Z,58.43
2022-08-22T23:07:36.000Z,59.56
2022-08-22T23:12:34.000Z,60.48
2022-08-22T23:17:35.000Z,60.48
2022-08-22T23:22:35.000Z,59.52
2022-08-22T23:27:34.000Z,58.34
2022-08-22T23:32:35.000Z,59.2
2022-08-22T23:37:35.000Z,61.66
2022-08-22T23:42:34.000Z,61.75
2022-08-22T23:47:35.000Z,60.39
2022-08-22T23:52:35.000Z,59.94
2022-08-22T23:57:37.000Z,59.24
